sensor_id;sensor_type;location;lat;lon;timestamp;pressure;altitude;pressure_sealevel;temperature;humidity
47522;BME280;32291;52.010;4.446;2022-07-10T00:00:19;79199.72;;;-144.67;76.95
47522;BME280;32291;52.010;4.446;2022-07-10T00:01:23;79197.56;;;-144.67;77.15
47522;BME280;32291;52.010;4.446;2022-07-10T00:02:25;79199.72;;;-144.67;77.34
47522;BME280;32291;52.010;4.446;2022-07-10T00:03:27;79199.72;;;-144.67;77.41
47522;BME280;32291;52.010;4.446;2022-07-10T00:04:29;79191.16;;;-144.67;77.57
47522;BME280;32291;52.010;4.446;2022-07-10T00:05:32;79191.16;;;-144.67;77.67
47522;BME280;32291;52.010;4.446;2022-07-10T00:06:36;79195.44;;;-144.67;77.76
47522;BME280;32291;52.010;4.446;2022-07-10T00:07:38;79197.56;;;-144.67;78.00
47522;BME280;32291;52.010;4.446;2022-07-10T00:08:40;79189.00;;;-144.67;77.83
47522;BME280;32291;52.010;4.446;2022-07-10T00:09:44;79191.16;;;-144.67;77.95
47522;BME280;32291;52.010;4.446;2022-07-10T00:10:45;79191.16;;;-144.67;78.12
47522;BME280;32291;52.010;4.446;2022-07-10T00:11:48;79191.16;;;-144.67;78.03
47522;BME280;32291;52.010;4.446;2022-07-10T00:12:51;79195.44;;;-144.67;77.82
47522;BME280;32291;52.010;4.446;2022-07-10T00:13:53;79195.44;;;-144.67;78.02
47522;BME280;32291;52.010;4.446;2022-07-10T00:14:56;79199.72;;;-144.67;78.09
47522;BME280;32291;52.010;4.446;2022-07-10T00:15:58;79195.44;;;-144.67;78.23
47522;BME280;32291;52.010;4.446;2022-07-10T00:17:04;79197.56;;;-144.67;78.22
47522;BME280;32291;52.010;4.446;2022-07-10T00:18:06;79210.41;;;-144.67;78.26
47522;BME280;32291;52.010;4.446;2022-07-10T00:19:08;79204.00;;;-144.67;78.59
47522;BME280;32291;52.010;4.446;2022-07-10T00:20:13;79204.00;;;-144.67;78.55
47522;BME280;32291;52.010;4.446;2022-07-10T00:21:15;79199.72;;;-144.67;78.58
47522;BME280;32291;52.010;4.446;2022-07-10T00:22:18;79208.28;;;-144.67;78.61
47522;BME280;32291;52.010;4.446;2022-07-10T00:23:19;79199.72;;;-144.67;78.53
47522;BME280;32291;52.010;4.446;2022-07-10T00:24:21;79208.28;;;-144.67;78.72
47522;BME280;32291;52.010;4.446;2022-07-10T00:25:24;79208.28;;;-144.67;78.84
47522;BME280;32291;52.010;4.446;2022-07-10T00:26:25;79210.41;;;-144.67;78.62
47522;BME280;32291;52.010;4.446;2022-07-10T00:27:27;79216.84;;;-144.67;78.76
47522;BME280;32291;52.010;4.446;2022-07-10T00:28:29;79218.97;;;-144.67;78.79
47522;BME280;32291;52.010;4.446;2022-07-10T00:29:31;79212.56;;;-144.67;79.02
47522;BME280;32291;52.010;4.446;2022-07-10T00:30:33;79212.56;;;-144.67;79.16
47522;BME280;32291;52.010;4.446;2022-07-10T00:31:35;79212.56;;;-144.67;79.17
47522;BME280;32291;52.010;4.446;2022-07-10T00:32:37;79212.56;;;-144.67;79.08
47522;BME280;32291;52.010;4.446;2022-07-10T00:33:39;79221.13;;;-144.67;79.48
47522;BME280;32291;52.010;4.446;2022-07-10T00:34:41;79212.56;;;-144.67;79.44
47522;BME280;32291;52.010;4.446;2022-07-10T00:35:43;79218.97;;;-144.67;79.40
47522;BME280;32291;52.010;4.446;2022-07-10T00:36:45;79212.56;;;-144.67;79.56
47522;BME280;32291;52.010;4.446;2022-07-10T00:37:47;79212.56;;;-144.67;79.62
47522;BME280;32291;52.010;4.446;2022-07-10T00:38:49;79212.56;;;-144.67;79.64
47522;BME280;32291;52.010;4.446;2022-07-10T00:39:51;79208.28;;;-144.67;79.89
47522;BME280;32291;52.010;4.446;2022-07-10T00:40:52;79204.00;;;-144.67;79.67
47522;BME280;32291;52.010;4.446;2022-07-10T00:42:05;79210.41;;;-144.67;79.76
47522;BME280;32291;52.010;4.446;2022-07-10T00:43:11;79197.56;;;-144.67;79.88
47522;BME280;32291;52.010;4.446;2022-07-10T00:44:13;79195.44;;;-144.67;79.72
47522;BME280;32291;52.010;4.446;2022-07-10T00:45:15;79204.00;;;-144.67;79.94
47522;BME280;32291;52.010;4.446;2022-07-10T00:46:17;79206.13;;;-144.67;79.84
47522;BME280;32291;52.010;4.446;2022-07-10T00:47:21;79206.13;;;-144.67;80.00
47522;BME280;32291;52.010;4.446;2022-07-10T00:48:24;79216.84;;;-144.67;80.15
47522;BME280;32291;52.010;4.446;2022-07-10T00:49:26;79212.56;;;-144.67;80.11
47522;BME280;32291;52.010;4.446;2022-07-10T00:50:29;79210.41;;;-144.67;80.01
47522;BME280;32291;52.010;4.446;2022-07-10T00:51:32;79214.69;;;-144.67;80.37
47522;BME280;32291;52.010;4.446;2022-07-10T00:52:36;79218.97;;;-144.67;80.48
47522;BME280;32291;52.010;4.446;2022-07-10T00:53:41;79218.97;;;-144.67;80.50
47522;BME280;32291;52.010;4.446;2022-07-10T00:54:48;79221.13;;;-144.67;80.87
47522;BME280;32291;52.010;4.446;2022-07-10T00:55:52;79218.97;;;-144.67;81.02
47522;BME280;32291;52.010;4.446;2022-07-10T00:56:54;79221.13;;;-144.67;80.94
47522;BME280;32291;52.010;4.446;2022-07-10T00:57:56;79225.41;;;-144.67;81.07
47522;BME280;32291;52.010;4.446;2022-07-10T00:58:58;79223.25;;;-144.67;81.21
47522;BME280;32291;52.010;4.446;2022-07-10T01:00:00;79225.41;;;-144.67;81.23
47522;BME280;32291;52.010;4.446;2022-07-10T01:01:02;79229.69;;;-144.67;81.21
47522;BME280;32291;52.010;4.446;2022-07-10T01:02:05;79229.69;;;-144.67;81.23
47522;BME280;32291;52.010;4.446;2022-07-10T01:03:08;79225.41;;;-144.67;81.61
47522;BME280;32291;52.010;4.446;2022-07-10T01:04:10;79229.69;;;-144.67;81.73
47522;BME280;32291;52.010;4.446;2022-07-10T01:05:12;79233.97;;;-144.67;81.86
47522;BME280;32291;52.010;4.446;2022-07-10T01:06:15;79229.69;;;-144.67;81.80
47522;BME280;32291;52.010;4.446;2022-07-10T01:07:17;79229.69;;;-144.67;82.09
47522;BME280;32291;52.010;4.446;2022-07-10T01:08:19;79227.56;;;-144.67;82.05
47522;BME280;32291;52.010;4.446;2022-07-10T01:09:22;79231.84;;;-144.67;82.19
47522;BME280;32291;52.010;4.446;2022-07-10T01:10:24;79229.69;;;-144.67;82.39
47522;BME280;32291;52.010;4.446;2022-07-10T01:11:26;79229.69;;;-144.67;82.51
47522;BME280;32291;52.010;4.446;2022-07-10T01:12:28;79231.84;;;-144.67;82.54
47522;BME280;32291;52.010;4.446;2022-07-10T01:13:31;79229.69;;;-144.67;82.65
47522;BME280;32291;52.010;4.446;2022-07-10T01:14:34;79229.69;;;-144.67;82.77
47522;BME280;32291;52.010;4.446;2022-07-10T01:15:38;79229.69;;;-144.67;82.80
47522;BME280;32291;52.010;4.446;2022-07-10T01:16:40;79229.69;;;-144.67;82.82
47522;BME280;32291;52.010;4.446;2022-07-10T01:17:43;79231.84;;;-144.67;83.22
47522;BME280;32291;52.010;4.446;2022-07-10T01:18:45;79231.84;;;-144.67;83.17
47522;BME280;32291;52.010;4.446;2022-07-10T01:19:47;79229.69;;;-144.67;83.01
47522;BME280;32291;52.010;4.446;2022-07-10T01:20:54;79231.84;;;-144.67;82.89
47522;BME280;32291;52.010;4.446;2022-07-10T01:21:57;79229.69;;;-144.67;82.98
47522;BME280;32291;52.010;4.446;2022-07-10T01:23:00;79233.97;;;-144.67;83.13
47522;BME280;32291;52.010;4.446;2022-07-10T01:24:09;79231.84;;;-144.67;83.14
47522;BME280;32291;52.010;4.446;2022-07-10T01:25:12;79233.97;;;-144.67;83.35
47522;BME280;32291;52.010;4.446;2022-07-10T01:26:14;79231.84;;;-144.67;83.32
47522;BME280;32291;52.010;4.446;2022-07-10T01:27:15;79233.97;;;-144.67;83.25
47522;BME280;32291;52.010;4.446;2022-07-10T01:28:20;79238.25;;;-144.67;83.12
47522;BME280;32291;52.010;4.446;2022-07-10T01:29:23;79231.84;;;-144.67;83.04
47522;BME280;32291;52.010;4.446;2022-07-10T01:30:26;79238.25;;;-144.67;83.30
47522;BME280;32291;52.010;4.446;2022-07-10T01:31:28;79238.25;;;-144.67;83.52
47522;BME280;32291;52.010;4.446;2022-07-10T01:32:39;79233.97;;;-144.67;83.49
47522;BME280;32291;52.010;4.446;2022-07-10T01:33:41;79240.41;;;-144.67;83.76
47522;BME280;32291;52.010;4.446;2022-07-10T01:34:44;79246.81;;;-144.67;83.82
47522;BME280;32291;52.010;4.446;2022-07-10T01:35:48;79242.53;;;-144.67;83.87
47522;BME280;32291;52.010;4.446;2022-07-10T01:36:51;79242.53;;;-144.67;84.08
47522;BME280;32291;52.010;4.446;2022-07-10T01:37:53;79240.41;;;-144.67;84.15
47522;BME280;32291;52.010;4.446;2022-07-10T01:38:55;79238.25;;;-144.67;84.10
47522;BME280;32291;52.010;4.446;2022-07-10T01:39:58;79242.53;;;-144.67;84.16
47522;BME280;32291;52.010;4.446;2022-07-10T01:41:00;79238.25;;;-144.67;84.01
47522;BME280;32291;52.010;4.446;2022-07-10T01:42:02;79242.53;;;-144.67;84.02
47522;BME280;32291;52.010;4.446;2022-07-10T01:43:04;79246.81;;;-144.67;84.05
47522;BME280;32291;52.010;4.446;2022-07-10T01:44:07;79244.69;;;-144.67;84.19
47522;BME280;32291;52.010;4.446;2022-07-10T01:45:10;79246.81;;;-144.67;84.19
47522;BME280;32291;52.010;4.446;2022-07-10T01:46:12;79244.69;;;-144.67;84.36
47522;BME280;32291;52.010;4.446;2022-07-10T01:47:14;79244.69;;;-144.67;84.55
47522;BME280;32291;52.010;4.446;2022-07-10T01:48:16;79251.09;;;-144.67;84.65
47522;BME280;32291;52.010;4.446;2022-07-10T01:49:18;79242.53;;;-144.67;84.59
47522;BME280;32291;52.010;4.446;2022-07-10T01:50:20;79246.81;;;-144.67;84.82
47522;BME280;32291;52.010;4.446;2022-07-10T01:51:23;79246.81;;;-144.67;84.97
47522;BME280;32291;52.010;4.446;2022-07-10T01:52:26;79251.09;;;-144.67;84.98
47522;BME280;32291;52.010;4.446;2022-07-10T01:53:28;79246.81;;;-144.67;85.09
47522;BME280;32291;52.010;4.446;2022-07-10T01:54:30;79246.81;;;-144.67;85.11
47522;BME280;32291;52.010;4.446;2022-07-10T01:55:32;79246.81;;;-144.67;85.09
47522;BME280;32291;52.010;4.446;2022-07-10T01:56:34;79251.09;;;-144.67;85.30
47522;BME280;32291;52.010;4.446;2022-07-10T01:57:36;79255.38;;;-144.67;85.41
47522;BME280;32291;52.010;4.446;2022-07-10T01:58:39;79255.38;;;-144.67;85.47
47522;BME280;32291;52.010;4.446;2022-07-10T01:59:41;79251.09;;;-144.67;85.47
47522;BME280;32291;52.010;4.446;2022-07-10T02:00:43;79255.38;;;-144.67;85.51
47522;BME280;32291;52.010;4.446;2022-07-10T02:01:46;79251.09;;;-144.67;85.59
47522;BME280;32291;52.010;4.446;2022-07-10T02:02:48;79255.38;;;-144.67;85.79
47522;BME280;32291;52.010;4.446;2022-07-10T02:04:10;79255.38;;;-144.67;86.29
47522;BME280;32291;52.010;4.446;2022-07-10T02:05:31;79248.97;;;-144.67;86.23
47522;BME280;32291;52.010;4.446;2022-07-10T02:06:33;79255.38;;;-144.67;86.36
47522;BME280;32291;52.010;4.446;2022-07-10T02:07:35;79246.81;;;-144.67;86.40
47522;BME280;32291;52.010;4.446;2022-07-10T02:08:37;79246.81;;;-144.67;86.46
47522;BME280;32291;52.010;4.446;2022-07-10T02:09:40;79253.25;;;-144.67;86.33
47522;BME280;32291;52.010;4.446;2022-07-10T02:10:42;79251.09;;;-144.67;86.43
47522;BME280;32291;52.010;4.446;2022-07-10T02:11:46;79253.25;;;-144.67;86.21
47522;BME280;32291;52.010;4.446;2022-07-10T02:12:48;79251.09;;;-144.67;86.40
47522;BME280;32291;52.010;4.446;2022-07-10T02:13:50;79255.38;;;-144.67;86.41
47522;BME280;32291;52.010;4.446;2022-07-10T02:14:52;79259.66;;;-144.67;86.51
47522;BME280;32291;52.010;4.446;2022-07-10T02:15:55;79255.38;;;-144.67;86.61
47522;BME280;32291;52.010;4.446;2022-07-10T02:16:57;79261.81;;;-144.67;86.70
47522;BME280;32291;52.010;4.446;2022-07-10T02:18:00;79259.66;;;-144.67;86.87
47522;BME280;32291;52.010;4.446;2022-07-10T02:19:02;79263.97;;;-144.67;87.01
47522;BME280;32291;52.010;4.446;2022-07-10T02:20:05;79251.09;;;-144.67;87.21
47522;BME280;32291;52.010;4.446;2022-07-10T02:21:08;79251.09;;;-144.67;87.62
47522;BME280;32291;52.010;4.446;2022-07-10T02:22:09;79248.97;;;-144.67;87.58
47522;BME280;32291;52.010;4.446;2022-07-10T02:23:11;79244.69;;;-144.67;87.59
47522;BME280;32291;52.010;4.446;2022-07-10T02:24:14;79242.53;;;-144.67;87.91
47522;BME280;32291;52.010;4.446;2022-07-10T02:25:16;79244.69;;;-144.67;87.94
47522;BME280;32291;52.010;4.446;2022-07-10T02:26:18;79255.38;;;-144.67;87.91
47522;BME280;32291;52.010;4.446;2022-07-10T02:27:20;79255.38;;;-144.67;87.78
47522;BME280;32291;52.010;4.446;2022-07-10T02:28:22;79257.53;;;-144.67;88.01
47522;BME280;32291;52.010;4.446;2022-07-10T02:29:24;79257.53;;;-144.67;87.94
47522;BME280;32291;52.010;4.446;2022-07-10T02:30:26;79255.38;;;-144.67;87.83
47522;BME280;32291;52.010;4.446;2022-07-10T02:31:29;79263.97;;;-144.67;87.80
47522;BME280;32291;52.010;4.446;2022-07-10T02:32:32;79274.66;;;-144.67;87.95
47522;BME280;32291;52.010;4.446;2022-07-10T02:33:34;79268.25;;;-144.67;88.05
47522;BME280;32291;52.010;4.446;2022-07-10T02:34:35;79268.25;;;-144.67;88.16
47522;BME280;32291;52.010;4.446;2022-07-10T02:35:37;79272.53;;;-144.67;88.84
47522;BME280;32291;52.010;4.446;2022-07-10T02:36:39;79278.94;;;-144.67;89.07
47522;BME280;32291;52.010;4.446;2022-07-10T02:37:42;79272.53;;;-144.67;89.88
47522;BME280;32291;52.010;4.446;2022-07-10T02:38:44;79278.94;;;-144.67;90.01
47522;BME280;32291;52.010;4.446;2022-07-10T02:39:46;79274.66;;;-144.67;89.92
47522;BME280;32291;52.010;4.446;2022-07-10T02:40:48;79274.66;;;-144.67;90.08
47522;BME280;32291;52.010;4.446;2022-07-10T02:41:50;79276.81;;;-144.67;89.92
47522;BME280;32291;52.010;4.446;2022-07-10T02:42:52;79276.81;;;-144.67;90.25
47522;BME280;32291;52.010;4.446;2022-07-10T02:43:54;79272.53;;;-144.67;90.17
47522;BME280;32291;52.010;4.446;2022-07-10T02:44:56;79276.81;;;-144.67;90.07
47522;BME280;32291;52.010;4.446;2022-07-10T02:45:58;79276.81;;;-144.67;90.14
47522;BME280;32291;52.010;4.446;2022-07-10T02:47:00;79268.25;;;-144.67;90.26
47522;BME280;32291;52.010;4.446;2022-07-10T02:48:03;79274.66;;;-144.67;90.35
47522;BME280;32291;52.010;4.446;2022-07-10T02:49:05;79272.53;;;-144.67;90.62
47522;BME280;32291;52.010;4.446;2022-07-10T02:50:08;79272.53;;;-144.67;90.66
47522;BME280;32291;52.010;4.446;2022-07-10T02:51:10;79268.25;;;-144.67;90.63
47522;BME280;32291;52.010;4.446;2022-07-10T02:52:12;79268.25;;;-144.67;90.52
47522;BME280;32291;52.010;4.446;2022-07-10T02:53:14;79268.25;;;-144.67;90.51
47522;BME280;32291;52.010;4.446;2022-07-10T02:54:16;79278.94;;;-144.67;90.58
47522;BME280;32291;52.010;4.446;2022-07-10T02:55:18;79270.38;;;-144.67;90.68
47522;BME280;32291;52.010;4.446;2022-07-10T02:56:20;79266.09;;;-144.67;90.71
47522;BME280;32291;52.010;4.446;2022-07-10T02:57:22;79261.81;;;-144.67;90.62
47522;BME280;32291;52.010;4.446;2022-07-10T02:58:24;79266.09;;;-144.67;90.76
47522;BME280;32291;52.010;4.446;2022-07-10T02:59:27;79257.53;;;-144.67;90.53
47522;BME280;32291;52.010;4.446;2022-07-10T03:00:29;79263.97;;;-144.67;90.64
47522;BME280;32291;52.010;4.446;2022-07-10T03:01:32;79259.66;;;-144.67;90.71
47522;BME280;32291;52.010;4.446;2022-07-10T03:02:34;79259.66;;;-144.67;90.50
47522;BME280;32291;52.010;4.446;2022-07-10T03:03:35;79255.38;;;-144.67;90.61
47522;BME280;32291;52.010;4.446;2022-07-10T03:04:37;79253.25;;;-144.67;90.62
47522;BME280;32291;52.010;4.446;2022-07-10T03:05:40;79253.25;;;-144.67;90.87
47522;BME280;32291;52.010;4.446;2022-07-10T03:06:42;79248.97;;;-144.67;90.94
47522;BME280;32291;52.010;4.446;2022-07-10T03:07:44;79242.53;;;-144.67;91.01
47522;BME280;32291;52.010;4.446;2022-07-10T03:08:46;79244.69;;;-144.67;91.11
47522;BME280;32291;52.010;4.446;2022-07-10T03:09:48;79242.53;;;-144.67;90.97
47522;BME280;32291;52.010;4.446;2022-07-10T03:10:49;79238.25;;;-144.67;91.06
47522;BME280;32291;52.010;4.446;2022-07-10T03:11:52;79238.25;;;-144.67;90.96
47522;BME280;32291;52.010;4.446;2022-07-10T03:12:54;79242.53;;;-144.67;91.00
47522;BME280;32291;52.010;4.446;2022-07-10T03:13:56;79242.53;;;-144.67;91.01
47522;BME280;32291;52.010;4.446;2022-07-10T03:14:59;79236.13;;;-144.67;91.11
47522;BME280;32291;52.010;4.446;2022-07-10T03:16:03;79236.13;;;-144.67;91.25
47522;BME280;32291;52.010;4.446;2022-07-10T03:17:05;79233.97;;;-144.67;90.97
47522;BME280;32291;52.010;4.446;2022-07-10T03:18:07;79231.84;;;-144.67;91.21
47522;BME280;32291;52.010;4.446;2022-07-10T03:19:09;79233.97;;;-144.67;91.23
47522;BME280;32291;52.010;4.446;2022-07-10T03:20:12;79225.41;;;-144.67;91.18
47522;BME280;32291;52.010;4.446;2022-07-10T03:21:14;79223.25;;;-144.67;91.40
47522;BME280;32291;52.010;4.446;2022-07-10T03:22:16;79229.69;;;-144.67;91.37
47522;BME280;32291;52.010;4.446;2022-07-10T03:23:17;79225.41;;;-144.67;91.47
47522;BME280;32291;52.010;4.446;2022-07-10T03:24:21;79225.41;;;-144.67;91.55
47522;BME280;32291;52.010;4.446;2022-07-10T03:25:23;79225.41;;;-144.67;91.56
47522;BME280;32291;52.010;4.446;2022-07-10T03:26:25;79225.41;;;-144.67;91.66
47522;BME280;32291;52.010;4.446;2022-07-10T03:27:28;79221.13;;;-144.67;91.58
47522;BME280;32291;52.010;4.446;2022-07-10T03:28:30;79221.13;;;-144.67;91.76
47522;BME280;32291;52.010;4.446;2022-07-10T03:29:32;79214.69;;;-144.67;91.83
47522;BME280;32291;52.010;4.446;2022-07-10T03:30:35;79216.84;;;-144.67;91.72
47522;BME280;32291;52.010;4.446;2022-07-10T03:31:37;79212.56;;;-144.67;91.78
47522;BME280;32291;52.010;4.446;2022-07-10T03:32:38;79218.97;;;-144.67;91.90
47522;BME280;32291;52.010;4.446;2022-07-10T03:33:40;79223.25;;;-144.67;91.96
47522;BME280;32291;52.010;4.446;2022-07-10T03:34:42;79212.56;;;-144.67;92.05
47522;BME280;32291;52.010;4.446;2022-07-10T03:35:44;79210.41;;;-144.67;92.12
47522;BME280;32291;52.010;4.446;2022-07-10T03:36:46;79208.28;;;-144.67;92.19
47522;BME280;32291;52.010;4.446;2022-07-10T03:37:48;79208.28;;;-144.67;92.14
47522;BME280;32291;52.010;4.446;2022-07-10T03:38:50;79204.00;;;-144.67;92.13
47522;BME280;32291;52.010;4.446;2022-07-10T03:39:52;79199.72;;;-144.67;92.06
47522;BME280;32291;52.010;4.446;2022-07-10T03:40:55;79197.56;;;-144.67;92.21
47522;BME280;32291;52.010;4.446;2022-07-10T03:41:56;79197.56;;;-144.67;92.26
47522;BME280;32291;52.010;4.446;2022-07-10T03:42:58;79189.00;;;-144.67;92.10
47522;BME280;32291;52.010;4.446;2022-07-10T03:44:00;79193.28;;;-144.67;92.08
47522;BME280;32291;52.010;4.446;2022-07-10T03:45:03;79186.84;;;-144.67;92.26
47522;BME280;32291;52.010;4.446;2022-07-10T03:46:05;79176.16;;;-144.67;91.98
47522;BME280;32291;52.010;4.446;2022-07-10T03:47:07;79182.56;;;-144.67;92.19
47522;BME280;32291;52.010;4.446;2022-07-10T03:48:09;79178.28;;;-144.67;92.11
47522;BME280;32291;52.010;4.446;2022-07-10T03:49:11;79176.16;;;-144.67;92.11
47522;BME280;32291;52.010;4.446;2022-07-10T03:50:13;79171.88;;;-144.67;92.17
47522;BME280;32291;52.010;4.446;2022-07-10T03:51:16;79178.28;;;-144.67;92.44
47522;BME280;32291;52.010;4.446;2022-07-10T03:52:17;79169.72;;;-144.67;92.46
47522;BME280;32291;52.010;4.446;2022-07-10T03:53:19;79161.16;;;-144.67;92.26
47522;BME280;32291;52.010;4.446;2022-07-10T03:54:21;79163.31;;;-144.67;92.08
47522;BME280;32291;52.010;4.446;2022-07-10T03:55:24;79163.31;;;-144.67;92.50
47522;BME280;32291;52.010;4.446;2022-07-10T03:56:34;79156.88;;;-144.67;92.42
47522;BME280;32291;52.010;4.446;2022-07-10T03:57:55;79152.59;;;-144.67;92.25
47522;BME280;32291;52.010;4.446;2022-07-10T03:58:58;79148.31;;;-144.67;92.25
47522;BME280;32291;52.010;4.446;2022-07-10T03:59:59;79144.03;;;-144.67;92.01
47522;BME280;32291;52.010;4.446;2022-07-10T04:01:02;79139.75;;;-144.67;92.12
47522;BME280;32291;52.010;4.446;2022-07-10T04:02:04;79137.59;;;-144.67;92.17
47522;BME280;32291;52.010;4.446;2022-07-10T04:03:07;79137.59;;;-144.67;92.27
47522;BME280;32291;52.010;4.446;2022-07-10T04:04:09;79139.75;;;-144.67;92.27
47522;BME280;32291;52.010;4.446;2022-07-10T04:05:11;79139.75;;;-144.67;92.15
47522;BME280;32291;52.010;4.446;2022-07-10T04:06:13;79135.47;;;-144.67;92.12
47522;BME280;32291;52.010;4.446;2022-07-10T04:07:15;79126.91;;;-144.67;92.01
47522;BME280;32291;52.010;4.446;2022-07-10T04:08:18;79118.34;;;-144.67;91.91
47522;BME280;32291;52.010;4.446;2022-07-10T04:09:20;79122.63;;;-144.67;92.04
47522;BME280;32291;52.010;4.446;2022-07-10T04:10:24;79122.63;;;-144.67;92.01
47522;BME280;32291;52.010;4.446;2022-07-10T04:11:27;79116.19;;;-144.67;92.05
47522;BME280;32291;52.010;4.446;2022-07-10T04:12:29;79118.34;;;-144.67;92.00
47522;BME280;32291;52.010;4.446;2022-07-10T04:13:31;79109.75;;;-144.67;91.78
47522;BME280;32291;52.010;4.446;2022-07-10T04:14:33;79105.47;;;-144.67;91.97
47522;BME280;32291;52.010;4.446;2022-07-10T04:15:35;79111.91;;;-144.67;91.93
47522;BME280;32291;52.010;4.446;2022-07-10T04:16:37;79107.63;;;-144.67;91.88
47522;BME280;32291;52.010;4.446;2022-07-10T04:17:39;79105.47;;;-144.67;91.77
47522;BME280;32291;52.010;4.446;2022-07-10T04:18:42;79103.34;;;-144.67;91.61
47522;BME280;32291;52.010;4.446;2022-07-10T04:19:44;79096.91;;;-144.67;91.64
47522;BME280;32291;52.010;4.446;2022-07-10T04:20:46;79094.78;;;-144.67;91.48
47522;BME280;32291;52.010;4.446;2022-07-10T04:21:48;79092.63;;;-144.67;91.47
47522;BME280;32291;52.010;4.446;2022-07-10T04:22:51;79092.63;;;-144.67;91.50
47522;BME280;32291;52.010;4.446;2022-07-10T04:23:52;79088.34;;;-144.67;91.48
47522;BME280;32291;52.010;4.446;2022-07-10T04:24:55;79084.06;;;-144.67;91.40
47522;BME280;32291;52.010;4.446;2022-07-10T04:25:57;79081.94;;;-144.67;91.42
47522;BME280;32291;52.010;4.446;2022-07-10T04:27:00;79079.78;;;-144.67;91.32
47522;BME280;32291;52.010;4.446;2022-07-10T04:28:03;79086.22;;;-144.67;91.45
47522;BME280;32291;52.010;4.446;2022-07-10T04:29:05;79081.94;;;-144.67;91.55
47522;BME280;32291;52.010;4.446;2022-07-10T04:30:08;79079.78;;;-144.67;91.47
47522;BME280;32291;52.010;4.446;2022-07-10T04:31:10;79079.78;;;-144.67;91.64
47522;BME280;32291;52.010;4.446;2022-07-10T04:32:12;79079.78;;;-144.67;91.52
47522;BME280;32291;52.010;4.446;2022-07-10T04:33:14;79075.50;;;-144.67;91.47
47522;BME280;32291;52.010;4.446;2022-07-10T04:34:16;79075.50;;;-144.67;91.35
47522;BME280;32291;52.010;4.446;2022-07-10T04:35:19;79071.22;;;-144.67;91.39
47522;BME280;32291;52.010;4.446;2022-07-10T04:36:21;79066.94;;;-144.67;91.51
47522;BME280;32291;52.010;4.446;2022-07-10T04:37:23;79071.22;;;-144.67;91.45
47522;BME280;32291;52.010;4.446;2022-07-10T04:38:24;79073.34;;;-144.67;91.39
47522;BME280;32291;52.010;4.446;2022-07-10T04:39:27;79066.94;;;-144.67;91.37
47522;BME280;32291;52.010;4.446;2022-07-10T04:40:29;79062.66;;;-144.67;91.05
47522;BME280;32291;52.010;4.446;2022-07-10T04:41:31;79058.38;;;-144.67;91.18
47522;BME280;32291;52.010;4.446;2022-07-10T04:42:33;79062.66;;;-144.67;90.94
47522;BME280;32291;52.010;4.446;2022-07-10T04:43:34;79058.38;;;-144.67;90.98
47522;BME280;32291;52.010;4.446;2022-07-10T04:44:37;79054.09;;;-144.67;91.00
47522;BME280;32291;52.010;4.446;2022-07-10T04:45:39;79058.38;;;-144.67;90.88
47522;BME280;32291;52.010;4.446;2022-07-10T04:46:41;79058.38;;;-144.67;90.80
47522;BME280;32291;52.010;4.446;2022-07-10T04:47:43;79060.50;;;-144.67;90.86
47522;BME280;32291;52.010;4.446;2022-07-10T04:48:45;79054.09;;;-144.67;90.64
47522;BME280;32291;52.010;4.446;2022-07-10T04:49:47;79051.94;;;-144.67;90.60
47522;BME280;32291;52.010;4.446;2022-07-10T04:50:49;79058.38;;;-144.67;90.46
47522;BME280;32291;52.010;4.446;2022-07-10T04:51:52;79047.66;;;-144.67;90.20
47522;BME280;32291;52.010;4.446;2022-07-10T04:52:53;79049.81;;;-144.67;90.21
47522;BME280;32291;52.010;4.446;2022-07-10T04:53:55;79047.66;;;-144.67;89.97
47522;BME280;32291;52.010;4.446;2022-07-10T04:54:57;79041.25;;;-144.67;89.85
47522;BME280;32291;52.010;4.446;2022-07-10T04:55:59;79041.25;;;-144.67;89.93
47522;BME280;32291;52.010;4.446;2022-07-10T04:57:02;79028.38;;;-144.67;89.64
47522;BME280;32291;52.010;4.446;2022-07-10T04:58:04;79019.81;;;-144.67;89.60
47522;BME280;32291;52.010;4.446;2022-07-10T04:59:06;79011.25;;;-144.67;89.06
47522;BME280;32291;52.010;4.446;2022-07-10T05:00:10;79011.25;;;-144.67;88.80
47522;BME280;32291;52.010;4.446;2022-07-10T05:01:12;79002.69;;;-144.67;88.62
47522;BME280;32291;52.010;4.446;2022-07-10T05:02:14;79013.41;;;-144.67;88.39
47522;BME280;32291;52.010;4.446;2022-07-10T05:03:16;78998.41;;;-144.67;88.14
47522;BME280;32291;52.010;4.446;2022-07-10T05:04:18;79002.69;;;-144.67;88.12
47522;BME280;32291;52.010;4.446;2022-07-10T05:05:20;78996.25;;;-144.67;88.08
47522;BME280;32291;52.010;4.446;2022-07-10T05:06:22;78998.41;;;-144.67;87.70
47522;BME280;32291;52.010;4.446;2022-07-10T05:07:24;78987.69;;;-144.67;87.61
47522;BME280;32291;52.010;4.446;2022-07-10T05:08:27;78987.69;;;-144.67;87.39
47522;BME280;32291;52.010;4.446;2022-07-10T05:09:29;78989.84;;;-144.67;87.25
47522;BME280;32291;52.010;4.446;2022-07-10T05:10:31;78985.56;;;-144.67;87.22
47522;BME280;32291;52.010;4.446;2022-07-10T05:11:33;78983.41;;;-144.67;87.01
47522;BME280;32291;52.010;4.446;2022-07-10T05:12:35;78977.00;;;-144.67;86.73
47522;BME280;32291;52.010;4.446;2022-07-10T05:13:37;78981.28;;;-144.67;86.53
47522;BME280;32291;52.010;4.446;2022-07-10T05:14:39;78979.13;;;-144.67;85.88
47522;BME280;32291;52.010;4.446;2022-07-10T05:15:41;78989.84;;;-144.67;85.92
47522;BME280;32291;52.010;4.446;2022-07-10T05:16:43;78977.00;;;-144.67;85.76
47522;BME280;32291;52.010;4.446;2022-07-10T05:17:46;78977.00;;;-144.67;85.49
47522;BME280;32291;52.010;4.446;2022-07-10T05:18:48;78968.44;;;-144.67;85.44
47522;BME280;32291;52.010;4.446;2022-07-10T05:19:50;78964.16;;;-144.67;85.42
47522;BME280;32291;52.010;4.446;2022-07-10T05:20:53;78964.16;;;-144.67;84.73
47522;BME280;32291;52.010;4.446;2022-07-10T05:21:55;78968.44;;;-144.67;84.23
47522;BME280;32291;52.010;4.446;2022-07-10T05:22:57;78966.28;;;-144.67;84.12